createdAt,value
2023-05-20T00:01:06.339Z,99.90
2023-05-20T00:03:33.396Z,99.90
2023-05-20T00:06:00.345Z,99.90
2023-05-20T00:08:27.154Z,99.90
2023-05-20T00:10:54.620Z,99.90
2023-05-20T00:13:21.676Z,99.90
2023-05-20T00:15:48.603Z,99.90
2023-05-20T00:18:15.538Z,99.90
2023-05-20T00:20:42.362Z,99.90
2023-05-20T00:23:09.352Z,99.90
2023-05-20T00:25:36.557Z,99.90
2023-05-20T00:28:03.635Z,99.90
2023-05-20T00:30:30.573Z,99.90
2023-05-20T00:32:57.535Z,99.90
2023-05-20T00:35:24.575Z,99.90
2023-05-20T00:37:51.397Z,99.90
2023-05-20T00:40:18.411Z,99.90
2023-05-20T00:42:45.623Z,99.90
2023-05-20T00:45:12.562Z,99.90
2023-05-20T00:47:39.781Z,99.90
2023-05-20T00:50:07.614Z,99.90
2023-05-20T00:52:35.248Z,99.90
2023-05-20T00:55:02.128Z,99.90
2023-05-20T00:57:29.225Z,99.90
2023-05-20T00:59:56.696Z,99.90
2023-05-20T01:02:24.065Z,99.90
2023-05-20T01:04:51.230Z,99.90
2023-05-20T01:07:19.411Z,99.90
2023-05-20T01:09:46.704Z,99.90
2023-05-20T01:12:18.516Z,99.90
2023-05-20T01:15:08.508Z,99.90
2023-05-20T01:17:41.611Z,99.90
2023-05-20T01:20:10.441Z,99.90
2023-05-20T01:22:38.796Z,99.90
2023-05-20T01:25:05.806Z,99.90
2023-05-20T01:27:32.768Z,99.90
2023-05-20T01:29:59.657Z,99.90
2023-05-20T01:32:32.244Z,99.90
2023-05-20T01:35:00.290Z,99.90
2023-05-20T01:37:28.345Z,99.90
2023-05-20T01:39:56.624Z,99.90
2023-05-20T01:42:26.336Z,99.90
2023-05-20T01:44:53.381Z,99.90
2023-05-20T01:47:20.463Z,99.90
2023-05-20T01:49:47.795Z,99.90
2023-05-20T01:52:15.289Z,99.90
2023-05-20T01:54:42.178Z,99.90
2023-05-20T01:57:09.065Z,99.90
2023-05-20T01:59:36.076Z,99.90
2023-05-20T02:02:03.067Z,99.90
2023-05-20T02:04:29.965Z,99.90
2023-05-20T02:06:56.844Z,99.90
2023-05-20T02:09:23.671Z,99.90
2023-05-20T02:11:50.583Z,99.90
2023-05-20T02:14:17.448Z,99.90
2023-05-20T02:16:44.381Z,99.90
2023-05-20T02:19:12.975Z,99.90
2023-05-20T02:21:41.473Z,99.90
2023-05-20T02:24:08.796Z,99.90
2023-05-20T02:26:35.651Z,99.90
2023-05-20T02:29:02.544Z,99.90
2023-05-20T02:31:29.469Z,99.90
2023-05-20T02:33:56.372Z,99.90
2023-05-20T02:36:23.292Z,99.90
2023-05-20T02:38:50.215Z,99.90
2023-05-20T02:41:17.042Z,99.90
2023-05-20T02:43:45.121Z,99.90
2023-05-20T02:46:12.046Z,99.90
2023-05-20T02:48:38.921Z,99.90
2023-05-20T02:51:06.193Z,99.90
2023-05-20T02:53:33.418Z,99.90
2023-05-20T02:56:01.598Z,99.90
2023-05-20T02:58:29.446Z,99.90
2023-05-20T03:00:57.742Z,99.90
2023-05-20T03:03:27.252Z,99.90
2023-05-20T03:05:54.605Z,99.90
2023-05-20T03:08:22.917Z,99.90
2023-05-20T03:10:49.845Z,99.90
2023-05-20T03:13:16.699Z,99.90
2023-05-20T03:15:46.910Z,99.90
2023-05-20T03:18:13.911Z,99.90
2023-05-20T03:20:41.661Z,99.90
2023-05-20T03:23:09.673Z,99.90
2023-05-20T03:25:37.576Z,99.90
2023-05-20T03:28:06.562Z,99.90
2023-05-20T03:30:33.454Z,99.90
2023-05-20T03:33:00.467Z,99.90
2023-05-20T03:35:27.380Z,99.90
2023-05-20T03:37:54.271Z,99.90
2023-05-20T03:40:21.439Z,99.90
2023-05-20T03:42:49.933Z,99.90
2023-05-20T03:45:16.869Z,99.90
2023-05-20T03:47:43.802Z,99.90
2023-05-20T03:50:10.869Z,99.90
2023-05-20T03:52:38.376Z,99.90
2023-05-20T03:55:05.709Z,99.90
2023-05-20T03:57:32.937Z,99.90
2023-05-20T03:59:59.946Z,99.90
2023-05-20T04:02:27.044Z,99.90
2023-05-20T04:04:57.711Z,99.90
2023-05-20T04:07:24.965Z,99.90
2023-05-20T04:09:52.282Z,99.90
2023-05-20T04:12:19.469Z,99.90
2023-05-20T04:14:46.378Z,99.90
2023-05-20T04:17:13.223Z,99.90
2023-05-20T04:19:40.054Z,99.90
2023-05-20T04:22:07.049Z,99.90
2023-05-20T04:24:33.955Z,99.90
2023-05-20T04:27:02.045Z,99.90
2023-05-20T04:29:30.112Z,99.90
2023-05-20T04:31:58.844Z,99.90
2023-05-20T04:34:26.965Z,99.90
2023-05-20T04:36:54.002Z,99.90
2023-05-20T04:39:20.873Z,99.90
2023-05-20T04:41:48.515Z,99.90
2023-05-20T04:44:15.932Z,99.90
2023-05-20T04:46:42.813Z,99.90
2023-05-20T04:49:09.630Z,99.90
2023-05-20T04:51:36.804Z,99.90
2023-05-20T04:54:03.798Z,99.90
2023-05-20T04:56:30.626Z,99.90
2023-05-20T04:58:58.763Z,99.90
2023-05-20T05:01:25.667Z,99.90
2023-05-20T05:03:52.560Z,99.90
2023-05-20T05:06:19.383Z,99.90
2023-05-20T05:08:46.205Z,99.90
2023-05-20T05:11:13.023Z,99.90
2023-05-20T05:13:39.895Z,99.90
2023-05-20T05:16:06.883Z,99.90
2023-05-20T05:18:33.754Z,99.90
2023-05-20T05:21:05.070Z,99.90
2023-05-20T05:23:32.866Z,99.90
2023-05-20T05:25:59.833Z,99.90
2023-05-20T05:28:26.718Z,99.90
2023-05-20T05:30:57.114Z,99.90
2023-05-20T05:33:24.169Z,99.90
2023-05-20T05:35:51.429Z,99.90
2023-05-20T05:38:18.462Z,99.90
2023-05-20T05:40:45.482Z,99.90
2023-05-20T05:43:12.333Z,99.90
2023-05-20T05:45:39.404Z,99.90
2023-05-20T05:48:06.397Z,99.90
2023-05-20T05:50:33.355Z,99.90
2023-05-20T05:53:00.182Z,99.90
2023-05-20T05:55:27.077Z,99.90
2023-05-20T05:57:53.973Z,99.90
2023-05-20T06:00:21.150Z,99.90
2023-05-20T06:02:48.396Z,99.90
2023-05-20T06:05:15.742Z,99.90
2023-05-20T06:07:42.664Z,99.90
2023-05-20T06:10:10.306Z,99.90
2023-05-20T06:12:37.152Z,99.90
2023-05-20T06:15:04.717Z,99.90
2023-05-20T06:17:31.618Z,99.90
2023-05-20T06:19:58.516Z,99.90
2023-05-20T06:22:25.586Z,99.90
2023-05-20T06:24:56.474Z,99.90
2023-05-20T06:27:23.341Z,99.90
2023-05-20T06:29:50.406Z,99.90
2023-05-20T06:32:17.278Z,99.90
2023-05-20T06:34:44.364Z,99.90
2023-05-20T06:37:11.512Z,99.90
2023-05-20T06:39:38.322Z,99.90
2023-05-20T06:42:05.556Z,99.90
2023-05-20T06:44:32.469Z,96.50
2023-05-20T06:46:59.407Z,95.10
2023-05-20T06:49:26.352Z,92.80
2023-05-20T06:51:53.215Z,91.60
2023-05-20T06:54:20.122Z,90.30
2023-05-20T06:56:46.993Z,86.00
2023-05-20T06:59:13.868Z,82.90
2023-05-20T07:01:40.817Z,79.40
2023-05-20T07:04:07.782Z,75.80
2023-05-20T07:06:34.741Z,74.00
2023-05-20T07:09:01.857Z,72.30
2023-05-20T07:11:28.917Z,71.00
2023-05-20T07:13:55.858Z,70.00
2023-05-20T07:16:22.876Z,68.60
2023-05-20T07:18:49.971Z,65.70
2023-05-20T07:21:16.913Z,64.60
2023-05-20T07:23:43.869Z,64.10
2023-05-20T07:26:10.699Z,62.90
2023-05-20T07:28:38.676Z,62.30
2023-05-20T07:31:05.818Z,61.90
2023-05-20T07:33:32.940Z,59.90
2023-05-20T07:35:59.827Z,59.00
2023-05-20T07:38:27.000Z,58.50
2023-05-20T07:40:53.890Z,58.20
2023-05-20T07:43:20.899Z,56.60
2023-05-20T07:45:47.867Z,56.00
2023-05-20T07:48:14.796Z,55.50
2023-05-20T07:50:41.779Z,55.70
2023-05-20T07:53:08.700Z,55.30
2023-05-20T07:55:39.304Z,54.20
2023-05-20T07:58:06.402Z,54.10
2023-05-20T08:00:33.410Z,53.60
2023-05-20T08:03:00.481Z,53.20
2023-05-20T08:05:27.482Z,52.70
2023-05-20T08:07:54.329Z,52.30
2023-05-20T08:10:21.222Z,52.20
2023-05-20T08:12:48.105Z,52.10
2023-05-20T08:15:14.963Z,51.40
2023-05-20T08:17:41.918Z,51.20
2023-05-20T08:20:09.721Z,51.20
2023-05-20T08:22:37.731Z,51.10
2023-05-20T08:25:08.080Z,50.80
2023-05-20T08:27:38.544Z,50.50
2023-05-20T08:30:08.346Z,50.30
2023-05-20T08:32:35.714Z,50.60
2023-05-20T08:35:03.739Z,50.20
2023-05-20T08:37:30.785Z,50.20
2023-05-20T08:39:57.658Z,50.20
2023-05-20T08:42:25.174Z,50.60
2023-05-20T08:44:57.358Z,50.30
2023-05-20T08:47:24.538Z,50.20
2023-05-20T08:49:51.570Z,50.20
2023-05-20T08:52:22.202Z,49.90
2023-05-20T08:54:50.379Z,50.20
2023-05-20T08:57:17.830Z,50.30
2023-05-20T08:59:46.966Z,49.90
2023-05-20T09:02:14.596Z,50.10
2023-05-20T09:04:42.107Z,50.00
2023-05-20T09:07:09.289Z,50.40
2023-05-20T09:09:36.339Z,49.50
2023-05-20T09:12:03.774Z,49.90
2023-05-20T09:14:31.946Z,50.10
2023-05-20T09:16:59.693Z,49.90
2023-05-20T09:19:26.798Z,50.40
2023-05-20T09:21:55.086Z,50.70
2023-05-20T09:24:26.425Z,51.40
2023-05-20T09:26:53.748Z,51.60
2023-05-20T09:29:21.900Z,51.00
2023-05-20T09:31:49.998Z,51.00
2023-05-20T09:34:17.559Z,50.70
2023-05-20T09:36:45.301Z,51.70
2023-05-20T09:39:17.172Z,51.80
2023-05-20T09:42:07.169Z,53.00
2023-05-20T09:44:35.087Z,53.60
2023-05-20T09:47:03.061Z,54.60
2023-05-20T09:49:32.451Z,54.90
2023-05-20T09:52:01.302Z,55.60
2023-05-20T09:54:30.009Z,56.70
2023-05-20T09:56:59.945Z,56.70
2023-05-20T09:59:27.943Z,58.00
2023-05-20T10:01:54.873Z,57.20
2023-05-20T10:04:23.274Z,55.90
2023-05-20T10:07:06.723Z,56.40
2023-05-20T10:09:36.414Z,56.20
2023-05-20T10:12:47.749Z,55.30
2023-05-20T10:15:24.438Z,55.30
2023-05-20T10:18:09.218Z,55.80
2023-05-20T10:20:47.364Z,55.80
2023-05-20T10:23:24.741Z,55.00
2023-05-20T10:25:55.853Z,54.70
2023-05-20T10:28:36.080Z,55.60
2023-05-20T10:31:14.480Z,55.30
2023-05-20T10:33:43.660Z,55.20
2023-05-20T10:36:10.994Z,54.20
2023-05-20T10:38:37.874Z,53.30
2023-05-20T10:41:14.051Z,52.00
2023-05-20T10:43:41.096Z,51.70
2023-05-20T10:46:31.910Z,50.80
2023-05-20T10:49:03.728Z,50.00
2023-05-20T10:51:32.240Z,49.30
2023-05-20T10:53:59.311Z,49.10
2023-05-20T10:56:27.423Z,47.50
2023-05-20T10:58:54.930Z,47.20
2023-05-20T11:01:26.874Z,47.80
2023-05-20T11:03:57.884Z,48.10
2023-05-20T11:06:29.425Z,47.90
2023-05-20T11:09:03.333Z,46.70
2023-05-20T11:11:30.551Z,46.70
2023-05-20T11:13:57.658Z,47.00
2023-05-20T11:16:24.643Z,48.50
2023-05-20T11:18:51.826Z,48.50
2023-05-20T11:21:20.043Z,48.90
2023-05-20T11:23:47.073Z,50.30
2023-05-20T11:26:13.921Z,50.60
2023-05-20T11:28:41.034Z,51.30
2023-05-20T11:31:08.097Z,52.70
2023-05-20T11:33:34.953Z,54.00
2023-05-20T11:36:03.554Z,56.10
2023-05-20T11:38:32.644Z,55.50
2023-05-20T11:40:59.667Z,55.40
2023-05-20T11:43:26.708Z,54.50
2023-05-20T11:46:01.150Z,53.20
2023-05-20T11:48:28.275Z,52.80
2023-05-20T11:50:56.995Z,52.80
2023-05-20T11:53:24.790Z,52.00
2023-05-20T11:55:57.941Z,50.40
2023-05-20T11:58:28.979Z,49.70
2023-05-20T12:01:02.314Z,48.70
2023-05-20T12:03:36.835Z,48.50
2023-05-20T12:06:04.287Z,47.30
2023-05-20T12:08:31.317Z,47.10
2023-05-20T12:10:58.222Z,45.70
2023-05-20T12:13:25.079Z,45.00
2023-05-20T12:15:51.985Z,44.80
2023-05-20T12:18:18.798Z,44.10
2023-05-20T12:20:45.704Z,43.70
2023-05-20T12:23:12.560Z,43.80
2023-05-20T12:25:39.424Z,45.00
2023-05-20T12:28:11.371Z,46.10
2023-05-20T12:30:38.356Z,46.70
2023-05-20T12:33:05.320Z,47.40
2023-05-20T12:35:43.024Z,47.50
2023-05-20T12:38:13.493Z,47.90
2023-05-20T12:40:44.553Z,47.40
2023-05-20T12:43:11.373Z,47.50
2023-05-20T12:45:38.278Z,47.00
2023-05-20T12:48:07.791Z,47.30
2023-05-20T12:50:35.058Z,47.20
2023-05-20T12:53:02.217Z,46.30
2023-05-20T12:55:29.100Z,46.00
2023-05-20T12:57:56.346Z,46.30
2023-05-20T13:00:23.535Z,45.80
2023-05-20T13:02:50.503Z,46.40
2023-05-20T13:05:17.488Z,47.30
2023-05-20T13:07:45.052Z,48.20
2023-05-20T13:10:12.071Z,49.50
2023-05-20T13:12:39.062Z,49.70
2023-05-20T13:15:07.763Z,51.20
2023-05-20T13:17:34.777Z,51.10
2023-05-20T13:20:01.686Z,51.70
2023-05-20T13:22:28.614Z,52.50
2023-05-20T13:24:55.583Z,53.00
2023-05-20T13:27:22.422Z,54.30
2023-05-20T13:29:49.464Z,54.80
2023-05-20T13:32:16.411Z,54.80
2023-05-20T13:34:43.533Z,55.40
2023-05-20T13:37:10.481Z,56.00
2023-05-20T13:39:37.595Z,56.20
2023-05-20T13:42:04.529Z,56.50
2023-05-20T13:44:32.740Z,56.90
2023-05-20T13:46:59.967Z,57.20
2023-05-20T13:49:27.126Z,57.10
2023-05-20T13:51:53.998Z,57.80
2023-05-20T13:54:21.832Z,58.10
2023-05-20T13:56:49.096Z,58.00
2023-05-20T13:59:16.232Z,58.50
2023-05-20T14:01:46.632Z,59.00
2023-05-20T14:04:13.578Z,59.50
2023-05-20T14:06:40.780Z,59.70
2023-05-20T14:09:09.045Z,59.60
2023-05-20T14:11:37.425Z,59.40
2023-05-20T14:14:04.528Z,59.30
2023-05-20T14:16:32.708Z,60.10
2023-05-20T14:18:59.769Z,60.00
2023-05-20T14:21:26.692Z,60.20
2023-05-20T14:23:53.713Z,60.40
2023-05-20T14:26:21.529Z,61.10
2023-05-20T14:28:48.433Z,61.50
2023-05-20T14:31:15.624Z,61.70
2023-05-20T14:33:42.510Z,61.10
2023-05-20T14:36:10.366Z,61.30
2023-05-20T14:38:37.361Z,61.70
2023-05-20T14:41:04.407Z,62.00
2023-05-20T14:43:32.178Z,62.90
2023-05-20T14:45:59.453Z,64.00
2023-05-20T14:48:34.468Z,63.90
2023-05-20T14:51:01.370Z,64.90
2023-05-20T14:53:34.328Z,65.20
2023-05-20T14:56:02.575Z,66.50
2023-05-20T14:58:29.415Z,66.80
2023-05-20T15:00:56.931Z,66.60
2023-05-20T15:03:24.430Z,67.20
2023-05-20T15:05:51.522Z,67.40
2023-05-20T15:08:18.412Z,68.00
2023-05-20T15:10:45.397Z,68.00
2023-05-20T15:13:12.408Z,67.70
2023-05-20T15:15:44.022Z,67.90
2023-05-20T15:18:18.642Z,68.20
2023-05-20T15:20:45.437Z,67.70
2023-05-20T15:23:12.519Z,67.80
2023-05-20T15:25:39.394Z,67.40
2023-05-20T15:28:06.394Z,67.10
2023-05-20T15:30:40.460Z,67.30
2023-05-20T15:33:07.556Z,67.50
2023-05-20T15:35:34.454Z,67.80
2023-05-20T15:40:47.518Z,68.80
2023-05-20T15:43:14.430Z,69.20
2023-05-20T15:45:41.530Z,69.40
2023-05-20T15:48:08.865Z,70.00
2023-05-20T15:50:37.183Z,70.10
2023-05-20T15:53:08.096Z,70.50
2023-05-20T15:55:35.899Z,70.80
2023-05-20T15:58:02.856Z,70.80
2023-05-20T16:00:29.826Z,70.90
2023-05-20T16:02:56.928Z,71.20
2023-05-20T16:05:25.495Z,71.00
2023-05-20T16:07:53.401Z,71.00
2023-05-20T16:10:20.588Z,71.00
2023-05-20T16:12:50.496Z,71.60
2023-05-20T16:15:17.343Z,71.50
2023-05-20T16:17:44.393Z,71.90
2023-05-20T16:20:11.884Z,72.30
2023-05-20T16:22:38.820Z,72.50
2023-05-20T16:25:06.029Z,72.60
2023-05-20T16:27:32.998Z,72.90
2023-05-20T16:29:59.975Z,73.60
2023-05-20T16:32:27.160Z,73.60
2023-05-20T16:34:54.804Z,74.00
2023-05-20T16:37:21.630Z,74.30
2023-05-20T16:39:48.538Z,74.60
2023-05-20T16:42:15.432Z,74.50
2023-05-20T16:44:42.336Z,74.60
2023-05-20T16:47:09.357Z,75.80
2023-05-20T16:49:39.059Z,76.50
2023-05-20T16:52:06.541Z,77.10
2023-05-20T16:54:38.333Z,78.00
2023-05-20T16:57:12.501Z,78.40
2023-05-20T16:59:39.412Z,78.70
2023-05-20T17:02:06.530Z,79.10
2023-05-20T17:04:33.477Z,79.00
2023-05-20T17:07:01.840Z,79.80
2023-05-20T17:09:31.906Z,79.50
2023-05-20T17:11:58.776Z,79.80
2023-05-20T17:14:28.726Z,80.30
2023-05-20T17:16:55.830Z,80.50
2023-05-20T17:19:22.831Z,80.40
2023-05-20T17:21:49.841Z,80.60
2023-05-20T17:24:16.722Z,81.00
2023-05-20T17:26:43.655Z,81.00
2023-05-20T17:29:10.773Z,81.70
2023-05-20T17:31:37.639Z,82.10
2023-05-20T17:34:04.567Z,82.70
2023-05-20T17:36:31.541Z,82.90
2023-05-20T17:38:59.468Z,83.40
2023-05-20T17:41:27.908Z,83.60
2023-05-20T17:43:54.821Z,83.90
2023-05-20T17:46:28.521Z,83.70
2023-05-20T17:48:56.807Z,84.00
2023-05-20T17:51:23.902Z,84.40
2023-05-20T17:53:50.819Z,84.60
2023-05-20T17:56:17.782Z,84.40
2023-05-20T17:58:45.136Z,84.40
2023-05-20T18:01:12.146Z,85.40
2023-05-20T18:03:39.961Z,85.00
2023-05-20T18:06:07.258Z,85.40
2023-05-20T18:08:34.224Z,85.40
2023-05-20T18:11:01.178Z,85.50
2023-05-20T18:13:28.075Z,85.70
2023-05-20T18:15:54.987Z,85.80
2023-05-20T18:18:21.872Z,86.20
2023-05-20T18:20:48.839Z,86.50
2023-05-20T18:23:15.976Z,87.00
2023-05-20T18:25:43.020Z,87.40
2023-05-20T18:28:11.139Z,87.90
2023-05-20T18:30:37.974Z,88.10
2023-05-20T18:33:13.620Z,88.40
2023-05-20T18:35:40.625Z,89.00
2023-05-20T18:38:07.705Z,89.50
2023-05-20T18:40:34.838Z,90.00
2023-05-20T18:43:01.885Z,90.20
2023-05-20T18:45:29.874Z,90.30
2023-05-20T18:47:59.344Z,90.50
2023-05-20T18:50:26.688Z,90.70
2023-05-20T18:52:53.569Z,90.90
2023-05-20T18:55:20.506Z,91.10
2023-05-20T18:57:47.466Z,91.30
2023-05-20T19:00:18.353Z,91.60
2023-05-20T19:02:45.294Z,91.80
2023-05-20T19:05:13.304Z,92.10
2023-05-20T19:07:40.957Z,92.30
2023-05-20T19:10:08.596Z,92.40
2023-05-20T19:12:35.533Z,92.60
2023-05-20T19:15:05.053Z,92.80
2023-05-20T19:17:31.932Z,93.00
2023-05-20T19:20:08.514Z,93.30
2023-05-20T19:22:35.783Z,93.50
2023-05-20T19:25:02.807Z,93.80
2023-05-20T19:27:29.766Z,94.00
2023-05-20T19:29:56.786Z,94.30
2023-05-20T19:32:29.067Z,94.60
2023-05-20T19:34:55.912Z,95.20
2023-05-20T19:37:23.402Z,95.60
2023-05-20T19:39:50.374Z,96.20
2023-05-20T19:42:17.284Z,97.00
2023-05-20T19:44:46.600Z,97.20
2023-05-20T19:47:13.875Z,97.80
2023-05-20T19:49:40.792Z,98.20
2023-05-20T19:52:07.704Z,98.80
2023-05-20T19:54:34.707Z,99.50
2023-05-20T19:57:01.922Z,99.90
2023-05-20T19:59:28.846Z,99.90
2023-05-20T20:02:18.129Z,99.90
2023-05-20T20:04:51.897Z,99.90
2023-05-20T20:07:19.502Z,99.90
2023-05-20T20:09:48.321Z,99.90
2023-05-20T20:12:15.330Z,99.90
2023-05-20T20:14:42.166Z,99.90
2023-05-20T20:17:13.517Z,99.90
2023-05-20T20:19:40.549Z,99.90
2023-05-20T20:22:07.613Z,99.90
2023-05-20T20:24:34.603Z,99.90
2023-05-20T20:27:02.045Z,99.90
2023-05-20T20:29:28.932Z,99.90
2023-05-20T20:31:56.014Z,99.90
2023-05-20T20:34:23.018Z,99.90
2023-05-20T20:36:51.303Z,99.90
2023-05-20T20:39:28.025Z,99.90
2023-05-20T20:41:55.197Z,99.90
2023-05-20T20:44:38.953Z,99.90
2023-05-20T20:47:06.000Z,99.90
2023-05-20T20:49:33.479Z,99.90
2023-05-20T20:52:00.343Z,99.90
2023-05-20T20:54:27.152Z,99.90
2023-05-20T20:56:56.498Z,99.90
2023-05-20T20:59:26.526Z,99.90
2023-05-20T21:01:54.121Z,99.90
2023-05-20T21:04:30.149Z,99.90
2023-05-20T21:06:59.040Z,99.90
2023-05-20T21:09:28.705Z,99.90
2023-05-20T21:11:57.109Z,99.90
2023-05-20T21:14:24.173Z,99.90
2023-05-20T21:16:51.112Z,99.90
2023-05-20T21:19:18.178Z,99.90
2023-05-20T21:21:45.328Z,99.90
2023-05-20T21:24:12.207Z,99.90
2023-05-20T21:26:39.214Z,99.90
2023-05-20T21:29:07.316Z,99.90
2023-05-20T21:31:34.276Z,99.90
2023-05-20T21:34:01.184Z,99.90
2023-05-20T21:36:28.100Z,99.90
2023-05-20T21:38:55.083Z,99.90
2023-05-20T21:41:23.402Z,99.90
2023-05-20T21:43:50.526Z,99.90
2023-05-20T21:46:17.505Z,99.90
2023-05-20T21:48:44.445Z,99.90
2023-05-20T21:51:11.422Z,99.90
2023-05-20T21:53:38.283Z,99.90
2023-05-20T21:56:05.495Z,99.90
2023-05-20T21:58:32.381Z,99.90
2023-05-20T22:00:59.301Z,99.90
2023-05-20T22:03:26.246Z,99.90
2023-05-20T22:05:53.201Z,99.90
2023-05-20T22:08:20.137Z,99.90
2023-05-20T22:10:47.106Z,99.90
2023-05-20T22:13:17.036Z,99.90
2023-05-20T22:15:43.983Z,99.90
2023-05-20T22:18:12.336Z,99.90
2023-05-20T22:20:40.452Z,99.90
2023-05-20T22:23:07.466Z,99.90
2023-05-20T22:25:34.695Z,99.90
2023-05-20T22:28:04.538Z,99.90
2023-05-20T22:30:31.609Z,99.90
2023-05-20T22:32:59.220Z,99.90
2023-05-20T22:35:26.313Z,99.90
2023-05-20T22:37:54.893Z,99.90
2023-05-20T22:40:21.883Z,99.90
2023-05-20T22:42:48.930Z,99.90
2023-05-20T22:45:15.851Z,99.90
2023-05-20T22:47:42.873Z,99.90
2023-05-20T22:50:10.056Z,99.90
2023-05-20T22:52:36.965Z,99.90
2023-05-20T22:55:03.997Z,99.90
2023-05-20T22:57:30.953Z,99.90
2023-05-20T22:59:57.988Z,99.90
2023-05-20T23:02:24.887Z,99.90
2023-05-20T23:04:51.944Z,99.90
2023-05-20T23:07:19.548Z,99.90
2023-05-20T23:09:47.192Z,99.90
2023-05-20T23:12:21.370Z,99.90
2023-05-20T23:14:51.713Z,99.90
2023-05-20T23:17:18.653Z,99.90
2023-05-20T23:19:47.080Z,99.90
2023-05-20T23:22:14.228Z,99.90
2023-05-20T23:24:41.452Z,99.90
2023-05-20T23:27:08.259Z,99.90
2023-05-20T23:29:35.118Z,99.90
2023-05-20T23:32:01.975Z,99.90
2023-05-20T23:34:31.025Z,99.90
2023-05-20T23:36:57.862Z,99.90
2023-05-20T23:39:24.695Z,99.90
2023-05-20T23:41:51.648Z,99.90
2023-05-20T23:44:18.649Z,99.90
2023-05-20T23:46:45.576Z,99.90
2023-05-20T23:49:12.582Z,99.90
2023-05-20T23:51:39.424Z,99.90
2023-05-20T23:54:06.537Z,99.90
2023-05-20T23:56:33.400Z,99.90
2023-05-20T23:59:00.658Z,99.90
